OKPRC LKPR-LDSP
Flight info
| Callsign | OKPRC |
|---|---|
| Flight time | N/A |
| Altitude | 25000 |
| Route | VOZ5G/12 VOZ DCT PISAM DCT PETOV DCT NIVES DCT NUPSO |
| Aircraft | PC12/L-SDFGRWY/S |
Departure
| Time | N/A |
|---|---|
| Airport | Václav Havel Airport Prague (LKPR) |
Arrival
| Time | 2026-05-06 20:39 |
|---|---|
| Airport | Split Saint Jerome Airport (LDSP) |
| Time | Latitude | Longitude | Altitude | Speed | Heading |
|---|---|---|---|---|---|
| 2026-05-06 19:48 | 46.51341 | 15.93177 | 24894 ft | 250 kts | 177° |
| 2026-05-06 19:48 | 46.49595 | 15.93559 | 24893 ft | 250 kts | 177° |
| 2026-05-06 19:48 | 46.47880 | 15.93934 | 24891 ft | 250 kts | 177° |
| 2026-05-06 19:49 | 46.46156 | 15.94311 | 24892 ft | 250 kts | 177° |
| 2026-05-06 19:49 | 46.44992 | 15.94566 | 24893 ft | 250 kts | 177° |
| 2026-05-06 19:49 | 46.43247 | 15.94947 | 24891 ft | 250 kts | 177° |
| 2026-05-06 19:49 | 46.41528 | 15.95322 | 24893 ft | 250 kts | 177° |
| 2026-05-06 19:50 | 46.39800 | 15.95698 | 24892 ft | 250 kts | 177° |
| 2026-05-06 19:50 | 46.38077 | 15.96073 | 24890 ft | 250 kts | 178° |
| 2026-05-06 19:50 | 46.36377 | 15.96442 | 24889 ft | 250 kts | 178° |
| 2026-05-06 19:50 | 46.34643 | 15.96819 | 24890 ft | 250 kts | 178° |
| 2026-05-06 19:51 | 46.32906 | 15.97195 | 24889 ft | 251 kts | 178° |
| 2026-05-06 19:51 | 46.31179 | 15.97559 | 24889 ft | 250 kts | 180° |
| 2026-05-06 19:51 | 46.29460 | 15.97559 | 24896 ft | 246 kts | 188° |
| 2026-05-06 19:51 | 46.27768 | 15.97413 | 24893 ft | 246 kts | 188° |
| 2026-05-06 19:52 | 46.26031 | 15.97289 | 24893 ft | 247 kts | 188° |
| 2026-05-06 19:52 | 46.24313 | 15.97191 | 24890 ft | 247 kts | 188° |
| 2026-05-06 19:52 | 46.22591 | 15.97086 | 24890 ft | 247 kts | 188° |
| 2026-05-06 19:52 | 46.20874 | 15.96973 | 24888 ft | 247 kts | 188° |
| 2026-05-06 19:53 | 46.19158 | 15.96860 | 24887 ft | 247 kts | 188° |
| 2026-05-06 19:53 | 46.17433 | 15.96749 | 24885 ft | 247 kts | 188° |
| 2026-05-06 19:53 | 46.15716 | 15.96639 | 24889 ft | 247 kts | 188° |
| 2026-05-06 19:53 | 46.13998 | 15.96530 | 24890 ft | 247 kts | 188° |
| 2026-05-06 19:54 | 46.12280 | 15.96420 | 24891 ft | 247 kts | 189° |
| 2026-05-06 19:54 | 46.10560 | 15.96309 | 24892 ft | 247 kts | 189° |
| 2026-05-06 19:54 | 46.08841 | 15.96199 | 24891 ft | 247 kts | 189° |
| 2026-05-06 19:54 | 46.07119 | 15.96089 | 24893 ft | 247 kts | 189° |
| 2026-05-06 19:55 | 46.05397 | 15.95979 | 24904 ft | 247 kts | 189° |
| 2026-05-06 19:55 | 46.03704 | 15.95870 | 24900 ft | 247 kts | 189° |
| 2026-05-06 19:55 | 46.01979 | 15.95760 | 24906 ft | 247 kts | 189° |
| 2026-05-06 19:55 | 46.00255 | 15.95651 | 24906 ft | 247 kts | 189° |
| 2026-05-06 19:56 | 45.98535 | 15.95541 | 24908 ft | 247 kts | 189° |
| 2026-05-06 19:56 | 45.96812 | 15.95431 | 24911 ft | 248 kts | 189° |
| 2026-05-06 19:56 | 45.95091 | 15.95322 | 24913 ft | 248 kts | 189° |
| 2026-05-06 19:56 | 45.93367 | 15.95212 | 24914 ft | 248 kts | 189° |
| 2026-05-06 19:57 | 45.91637 | 15.95100 | 24918 ft | 249 kts | 189° |
| 2026-05-06 19:57 | 45.89908 | 15.94988 | 24922 ft | 248 kts | 189° |
| 2026-05-06 19:57 | 45.88186 | 15.94879 | 24927 ft | 248 kts | 189° |
| 2026-05-06 19:57 | 45.86460 | 15.94770 | 24928 ft | 248 kts | 190° |
| 2026-05-06 19:58 | 45.84734 | 15.94658 | 24929 ft | 248 kts | 190° |
| 2026-05-06 19:58 | 45.83026 | 15.94550 | 24928 ft | 249 kts | 190° |
| 2026-05-06 19:58 | 45.81298 | 15.94442 | 24930 ft | 249 kts | 190° |
| 2026-05-06 19:58 | 45.79565 | 15.94333 | 24931 ft | 248 kts | 190° |
| 2026-05-06 19:59 | 45.77841 | 15.94225 | 24932 ft | 248 kts | 190° |
| 2026-05-06 19:59 | 45.76115 | 15.94116 | 24931 ft | 248 kts | 190° |
| 2026-05-06 19:59 | 45.74394 | 15.94008 | 24931 ft | 247 kts | 190° |
| 2026-05-06 19:59 | 45.72671 | 15.93899 | 24930 ft | 247 kts | 190° |
| 2026-05-06 20:00 | 45.70954 | 15.93791 | 24929 ft | 247 kts | 190° |
| 2026-05-06 20:00 | 45.69228 | 15.93682 | 24929 ft | 247 kts | 190° |
| 2026-05-06 20:00 | 45.67512 | 15.93573 | 24926 ft | 247 kts | 190° |
| 2026-05-06 20:00 | 45.65796 | 15.93465 | 24928 ft | 247 kts | 190° |
| 2026-05-06 20:01 | 45.64080 | 15.93357 | 24926 ft | 247 kts | 190° |
| 2026-05-06 20:01 | 45.62339 | 15.93247 | 24924 ft | 247 kts | 190° |
| 2026-05-06 20:01 | 45.60624 | 15.93139 | 24921 ft | 246 kts | 190° |
| 2026-05-06 20:01 | 45.58888 | 15.93029 | 24923 ft | 246 kts | 190° |
| 2026-05-06 20:02 | 45.57177 | 15.92922 | 24925 ft | 246 kts | 190° |
| 2026-05-06 20:02 | 45.55462 | 15.92814 | 24923 ft | 246 kts | 190° |
| 2026-05-06 20:02 | 45.53769 | 15.92707 | 24917 ft | 247 kts | 190° |
| 2026-05-06 20:02 | 45.52051 | 15.92600 | 24914 ft | 247 kts | 190° |
| 2026-05-06 20:03 | 45.50331 | 15.92493 | 24914 ft | 247 kts | 190° |
| 2026-05-06 20:03 | 45.48612 | 15.92385 | 24915 ft | 247 kts | 189° |
| 2026-05-06 20:03 | 45.46892 | 15.92280 | 24912 ft | 247 kts | 189° |
| 2026-05-06 20:03 | 45.45178 | 15.92173 | 24916 ft | 246 kts | 190° |
| 2026-05-06 20:04 | 45.43468 | 15.92064 | 24915 ft | 247 kts | 189° |
| 2026-05-06 20:04 | 45.41747 | 15.91956 | 24916 ft | 247 kts | 189° |
| 2026-05-06 20:04 | 45.40031 | 15.91850 | 24920 ft | 247 kts | 189° |
| 2026-05-06 20:04 | 45.38312 | 15.91743 | 24914 ft | 247 kts | 189° |
| 2026-05-06 20:05 | 45.36592 | 15.91635 | 24919 ft | 247 kts | 189° |
| 2026-05-06 20:05 | 45.34874 | 15.91528 | 24920 ft | 247 kts | 189° |
| 2026-05-06 20:05 | 45.33157 | 15.91422 | 24921 ft | 247 kts | 189° |
| 2026-05-06 20:05 | 45.31438 | 15.91314 | 24922 ft | 247 kts | 189° |
| 2026-05-06 20:06 | 45.29718 | 15.91207 | 24920 ft | 247 kts | 189° |
| 2026-05-06 20:06 | 45.27997 | 15.91100 | 24919 ft | 248 kts | 189° |
| 2026-05-06 20:06 | 45.26270 | 15.90993 | 24917 ft | 248 kts | 189° |
| 2026-05-06 20:06 | 45.24547 | 15.90886 | 24920 ft | 248 kts | 189° |
| 2026-05-06 20:07 | 45.22824 | 15.90779 | 24921 ft | 248 kts | 189° |
| 2026-05-06 20:07 | 45.21099 | 15.90677 | 24924 ft | 248 kts | 189° |
| 2026-05-06 20:07 | 45.19369 | 15.90589 | 24923 ft | 248 kts | 188° |
| 2026-05-06 20:07 | 45.17645 | 15.90506 | 24927 ft | 248 kts | 188° |
| 2026-05-06 20:08 | 45.15914 | 15.90420 | 24923 ft | 248 kts | 188° |
| 2026-05-06 20:08 | 45.14191 | 15.90331 | 24928 ft | 248 kts | 188° |
| 2026-05-06 20:08 | 45.12464 | 15.90240 | 24929 ft | 248 kts | 188° |
| 2026-05-06 20:08 | 45.10741 | 15.90151 | 24927 ft | 248 kts | 188° |
| 2026-05-06 20:09 | 45.09019 | 15.90062 | 24927 ft | 248 kts | 189° |
| 2026-05-06 20:09 | 45.07286 | 15.89972 | 24929 ft | 248 kts | 189° |
| 2026-05-06 20:09 | 45.05563 | 15.89884 | 24931 ft | 249 kts | 189° |
| 2026-05-06 20:09 | 45.03834 | 15.89795 | 24932 ft | 248 kts | 189° |
| 2026-05-06 20:10 | 45.02104 | 15.89708 | 24933 ft | 248 kts | 189° |
| 2026-05-06 20:10 | 45.00378 | 15.89618 | 24934 ft | 248 kts | 189° |
| 2026-05-06 20:10 | 44.98652 | 15.89530 | 24938 ft | 248 kts | 189° |
| 2026-05-06 20:10 | 44.96926 | 15.89442 | 24937 ft | 248 kts | 189° |
| 2026-05-06 20:11 | 44.95197 | 15.89353 | 24939 ft | 247 kts | 189° |
| 2026-05-06 20:11 | 44.93480 | 15.89264 | 24940 ft | 248 kts | 189° |
| 2026-05-06 20:11 | 44.91758 | 15.89176 | 24946 ft | 247 kts | 189° |
| 2026-05-06 20:11 | 44.90034 | 15.89088 | 24944 ft | 247 kts | 189° |
| 2026-05-06 20:12 | 44.88316 | 15.89001 | 24945 ft | 247 kts | 189° |
| 2026-05-06 20:12 | 44.86597 | 15.88912 | 24950 ft | 247 kts | 189° |
| 2026-05-06 20:12 | 44.84878 | 15.88824 | 24950 ft | 248 kts | 189° |
| 2026-05-06 20:12 | 44.83155 | 15.88738 | 24951 ft | 248 kts | 189° |
| 2026-05-06 20:13 | 44.81428 | 15.88651 | 24954 ft | 247 kts | 189° |
| 2026-05-06 20:13 | 44.79705 | 15.88563 | 24951 ft | 247 kts | 189° |
| 2026-05-06 20:13 | 44.78062 | 15.88477 | 24964 ft | 245 kts | 188° |
| 2026-05-06 20:13 | 44.76302 | 15.88390 | 24967 ft | 246 kts | 189° |
| 2026-05-06 20:14 | 44.74592 | 15.88304 | 24965 ft | 246 kts | 189° |
| 2026-05-06 20:14 | 44.73434 | 15.88245 | 24963 ft | 246 kts | 189° |
| 2026-05-06 20:14 | 44.71170 | 15.88128 | 24968 ft | 246 kts | 189° |
| 2026-05-06 20:14 | 44.69458 | 15.88042 | 24972 ft | 246 kts | 189° |
| 2026-05-06 20:15 | 44.67749 | 15.87955 | 24965 ft | 246 kts | 189° |
| 2026-05-06 20:15 | 44.66592 | 15.87895 | 24973 ft | 246 kts | 189° |
| 2026-05-06 20:15 | 44.64329 | 15.87789 | 24975 ft | 247 kts | 187° |
| 2026-05-06 20:15 | 44.63177 | 15.87893 | 24974 ft | 251 kts | 180° |
| 2026-05-06 20:16 | 44.61451 | 15.88332 | 24977 ft | 253 kts | 175° |
| 2026-05-06 20:16 | 44.59727 | 15.88815 | 24981 ft | 250 kts | 177° |
| 2026-05-06 20:16 | 44.58022 | 15.89202 | 24989 ft | 248 kts | 179° |
| 2026-05-06 20:16 | 44.56293 | 15.89563 | 24987 ft | 248 kts | 179° |
| 2026-05-06 20:17 | 44.54584 | 15.89943 | 24987 ft | 249 kts | 178° |
| 2026-05-06 20:17 | 44.52869 | 15.90339 | 24998 ft | 251 kts | 178° |
| 2026-05-06 20:17 | 44.51158 | 15.90735 | 24994 ft | 252 kts | 178° |
| 2026-05-06 20:17 | 44.49401 | 15.91131 | 24989 ft | 253 kts | 178° |
| 2026-05-06 20:18 | 44.47685 | 15.91512 | 24990 ft | 253 kts | 178° |
| 2026-05-06 20:18 | 44.45912 | 15.91906 | 24820 ft | 258 kts | 178° |
| 2026-05-06 20:18 | 44.44154 | 15.92303 | 24518 ft | 257 kts | 177° |
| 2026-05-06 20:18 | 44.42382 | 15.92710 | 24209 ft | 254 kts | 177° |
| 2026-05-06 20:19 | 44.40616 | 15.93114 | 23905 ft | 253 kts | 177° |
| 2026-05-06 20:19 | 44.38882 | 15.93504 | 23605 ft | 252 kts | 177° |
| 2026-05-06 20:19 | 44.37146 | 15.93893 | 23263 ft | 251 kts | 177° |
| 2026-05-06 20:19 | 44.35429 | 15.94276 | 22908 ft | 250 kts | 176° |
| 2026-05-06 20:20 | 44.33713 | 15.94661 | 22559 ft | 249 kts | 176° |
| 2026-05-06 20:20 | 44.32004 | 15.95045 | 22201 ft | 248 kts | 176° |
| 2026-05-06 20:20 | 44.30296 | 15.95428 | 21804 ft | 249 kts | 176° |
| 2026-05-06 20:20 | 44.28576 | 15.95811 | 21421 ft | 251 kts | 176° |
| 2026-05-06 20:21 | 44.26843 | 15.96197 | 21040 ft | 251 kts | 176° |
| 2026-05-06 20:21 | 44.25126 | 15.96583 | 20673 ft | 251 kts | 175° |
| 2026-05-06 20:21 | 44.23403 | 15.96975 | 20301 ft | 250 kts | 175° |
| 2026-05-06 20:21 | 44.21664 | 15.97360 | 19925 ft | 249 kts | 175° |
| 2026-05-06 20:22 | 44.20025 | 15.97724 | 19580 ft | 249 kts | 175° |
| 2026-05-06 20:22 | 44.18228 | 15.98129 | 19209 ft | 248 kts | 175° |
| 2026-05-06 20:22 | 44.16529 | 15.98514 | 18854 ft | 247 kts | 175° |
| 2026-05-06 20:22 | 44.14854 | 15.98886 | 18510 ft | 246 kts | 175° |
| 2026-05-06 20:23 | 44.13160 | 15.99261 | 18145 ft | 246 kts | 174° |
| 2026-05-06 20:23 | 44.11451 | 15.99642 | 17737 ft | 245 kts | 175° |
| 2026-05-06 20:23 | 44.09767 | 16.00018 | 17338 ft | 244 kts | 175° |
| 2026-05-06 20:23 | 44.08093 | 16.00390 | 16943 ft | 243 kts | 175° |
| 2026-05-06 20:24 | 44.06429 | 16.00759 | 16565 ft | 242 kts | 175° |
| 2026-05-06 20:24 | 44.04769 | 16.01132 | 16180 ft | 241 kts | 175° |
| 2026-05-06 20:24 | 44.03113 | 16.01498 | 15809 ft | 241 kts | 175° |
| 2026-05-06 20:24 | 44.01479 | 16.01860 | 15443 ft | 240 kts | 175° |
| 2026-05-06 20:25 | 43.99826 | 16.02232 | 15077 ft | 240 kts | 175° |
| 2026-05-06 20:25 | 43.98176 | 16.02595 | 14710 ft | 240 kts | 175° |
| 2026-05-06 20:25 | 43.96523 | 16.02963 | 14354 ft | 240 kts | 175° |
| 2026-05-06 20:25 | 43.94896 | 16.03325 | 14012 ft | 240 kts | 175° |
| 2026-05-06 20:26 | 43.93227 | 16.03694 | 13632 ft | 240 kts | 175° |
| 2026-05-06 20:26 | 43.91580 | 16.04061 | 13233 ft | 239 kts | 175° |
| 2026-05-06 20:26 | 43.89938 | 16.04423 | 12840 ft | 239 kts | 175° |
| 2026-05-06 20:26 | 43.88284 | 16.04787 | 12451 ft | 238 kts | 175° |
| 2026-05-06 20:27 | 43.86642 | 16.05152 | 12070 ft | 238 kts | 175° |
| 2026-05-06 20:27 | 43.85007 | 16.05513 | 11688 ft | 238 kts | 175° |
| 2026-05-06 20:27 | 43.83401 | 16.05866 | 11325 ft | 238 kts | 175° |
| 2026-05-06 20:27 | 43.81780 | 16.06223 | 10959 ft | 238 kts | 174° |
| 2026-05-06 20:28 | 43.80143 | 16.06585 | 10597 ft | 238 kts | 174° |
| 2026-05-06 20:28 | 43.78501 | 16.06947 | 10237 ft | 238 kts | 174° |
| 2026-05-06 20:28 | 43.76865 | 16.07308 | 9878 ft | 238 kts | 173° |
| 2026-05-06 20:28 | 43.75231 | 16.07669 | 9487 ft | 237 kts | 173° |
| 2026-05-06 20:29 | 43.73612 | 16.08025 | 9098 ft | 235 kts | 173° |
| 2026-05-06 20:29 | 43.71999 | 16.08380 | 8715 ft | 234 kts | 173° |
| 2026-05-06 20:29 | 43.70399 | 16.08732 | 8328 ft | 232 kts | 173° |
| 2026-05-06 20:29 | 43.68814 | 16.09080 | 7957 ft | 230 kts | 173° |
| 2026-05-06 20:30 | 43.67242 | 16.09424 | 7588 ft | 227 kts | 173° |
| 2026-05-06 20:30 | 43.64164 | 16.10076 | 6849 ft | 221 kts | 173° |
| 2026-05-06 20:30 | 43.62650 | 16.10379 | 6490 ft | 218 kts | 173° |
| 2026-05-06 20:31 | 43.61153 | 16.10682 | 6114 ft | 216 kts | 173° |
| 2026-05-06 20:31 | 43.59663 | 16.10972 | 5740 ft | 216 kts | 173° |
| 2026-05-06 20:31 | 43.58195 | 16.11239 | 5360 ft | 210 kts | 173° |
| 2026-05-06 20:31 | 43.56759 | 16.11494 | 4992 ft | 206 kts | 173° |
| 2026-05-06 20:32 | 43.55340 | 16.11680 | 4621 ft | 205 kts | 178° |
| 2026-05-06 20:32 | 43.53915 | 16.11624 | 4242 ft | 208 kts | 182° |
| 2026-05-06 20:32 | 43.52471 | 16.11491 | 3864 ft | 207 kts | 182° |
| 2026-05-06 20:32 | 43.51044 | 16.11334 | 3484 ft | 200 kts | 183° |
| 2026-05-06 20:33 | 43.49716 | 16.11179 | 3119 ft | 184 kts | 182° |
| 2026-05-06 20:33 | 43.48481 | 16.11004 | 2804 ft | 171 kts | 182° |
| 2026-05-06 20:33 | 43.47351 | 16.10812 | 2805 ft | 162 kts | 182° |
| 2026-05-06 20:33 | 43.46214 | 16.10674 | 2790 ft | 163 kts | 172° |
| 2026-05-06 20:34 | 43.45253 | 16.11396 | 2804 ft | 162 kts | 129° |
| 2026-05-06 20:34 | 43.44961 | 16.12872 | 2802 ft | 168 kts | 91° |
| 2026-05-06 20:34 | 43.45371 | 16.14331 | 2646 ft | 164 kts | 64° |
| 2026-05-06 20:34 | 43.45997 | 16.15572 | 2444 ft | 150 kts | 64° |
| 2026-05-06 20:35 | 43.46606 | 16.16717 | 2238 ft | 145 kts | 62° |
| 2026-05-06 20:35 | 43.47192 | 16.17783 | 2047 ft | 136 kts | 63° |
| 2026-05-06 20:35 | 43.47753 | 16.18788 | 1869 ft | 128 kts | 63° |
| 2026-05-06 20:35 | 43.48263 | 16.19686 | 1709 ft | 106 kts | 63° |
| 2026-05-06 20:36 | 43.48681 | 16.20440 | 1576 ft | 96 kts | 67° |
| 2026-05-06 20:36 | 43.49079 | 16.21171 | 1441 ft | 93 kts | 67° |
| 2026-05-06 20:36 | 43.49467 | 16.21860 | 1315 ft | 90 kts | 63° |
| 2026-05-06 20:36 | 43.49850 | 16.22538 | 1186 ft | 89 kts | 65° |
| 2026-05-06 20:37 | 43.50234 | 16.23220 | 1073 ft | 89 kts | 66° |
| 2026-05-06 20:37 | 43.50606 | 16.23873 | 944 ft | 82 kts | 66° |
| 2026-05-06 20:37 | 43.50942 | 16.24499 | 852 ft | 82 kts | 64° |
| 2026-05-06 20:37 | 43.51293 | 16.25118 | 747 ft | 80 kts | 62° |
| 2026-05-06 20:38 | 43.51626 | 16.25710 | 652 ft | 76 kts | 58° |
| 2026-05-06 20:38 | 43.51964 | 16.26316 | 535 ft | 82 kts | 57° |
| 2026-05-06 20:38 | 43.52313 | 16.26919 | 415 ft | 80 kts | 60° |
| 2026-05-06 20:38 | 43.52646 | 16.27527 | 318 ft | 78 kts | 60° |
| 2026-05-06 20:39 | 43.52951 | 16.28103 | 192 ft | 72 kts | 51° |
| 2026-05-06 20:39 | 43.53245 | 16.28620 | 97 ft | 62 kts | 55° |
| 2026-05-06 20:39 | 43.53474 | 16.29041 | 83 ft | 49 kts | 55° |
| 2026-05-06 20:39 | 43.53634 | 16.29338 | 82 ft | 25 kts | 56° |
| 2026-05-06 20:40 | 43.53697 | 16.29500 | 68 ft | 9 kts | 77° |
| 2026-05-06 20:40 | 43.53684 | 16.29579 | 59 ft | 0 kts | 142° |
| 2026-05-06 20:40 | 43.53676 | 16.29587 | 61 ft | 4 kts | 137° |
| 2026-05-06 20:40 | 43.53655 | 16.29593 | 64 ft | 5 kts | 202° |
| 2026-05-06 20:41 | 43.53609 | 16.29596 | 58 ft | 7 kts | 137° |
| 2026-05-06 20:41 | 43.53579 | 16.29646 | 62 ft | 7 kts | 93° |
| 2026-05-06 20:41 | 43.53586 | 16.29691 | 64 ft | 4 kts | 98° |
| 2026-05-06 20:41 | 43.53585 | 16.29699 | 64 ft | 0 kts | 97° |